Time;durP1;ratioP1;P1;durP2;ratioP2;P2;SDS_P1;SDS_P2;PMS_P1;PMS_P2;Temp;Humidity;BMP_temperature;BMP_pressure;BME280_temperature;BME280_humidity;BME280_pressure;Samples;Min_cycle;Max_cycle;Signal;HPM_P1;HPM_P2
2021/08/05 00:00:24;;;;;;;15.82;13.55;;;14.50;99.90;;;;;;5038695;28;20275;-74
2021/08/05 00:02:51;;;;;;;19.42;14.18;;;14.50;99.90;;;;;;5023246;28;20049;-73
2021/08/05 00:05:18;;;;;;;22.25;15.02;;;14.50;99.90;;;;;;5024633;28;20069;-73
2021/08/05 00:07:44;;;;;;;14.93;12.35;;;14.60;99.90;;;;;;5025104;28;20093;-72
2021/08/05 00:10:12;;;;;;;16.08;13.43;;;14.60;99.90;;;;;;5019860;28;20072;-73
2021/08/05 00:12:39;;;;;;;15.68;13.00;;;14.60;99.90;;;;;;5013102;28;20049;-72
2021/08/05 00:15:06;;;;;;;14.73;12.73;;;14.60;99.90;;;;;;5016486;28;20070;-72
2021/08/05 00:17:33;;;;;;;14.18;12.60;;;14.50;99.90;;;;;;5004937;28;20050;-72
2021/08/05 00:20:00;;;;;;;13.90;12.40;;;14.50;99.90;;;;;;5014163;28;20054;-72
2021/08/05 00:22:26;;;;;;;18.33;14.40;;;14.50;99.90;;;;;;5003325;28;20085;-73
2021/08/05 00:24:53;;;;;;;15.90;14.20;;;14.50;99.90;;;;;;4985374;28;20058;-73
2021/08/05 00:27:21;;;;;;;15.85;14.18;;;14.50;99.90;;;;;;4974002;28;20514;-73
2021/08/05 00:29:48;;;;;;;15.13;13.45;;;14.50;99.90;;;;;;5018076;28;20046;-73
2021/08/05 00:32:16;;;;;;;15.93;14.18;;;14.60;99.90;;;;;;5005308;28;20131;-73
2021/08/05 00:34:43;;;;;;;16.42;13.88;;;14.60;99.90;;;;;;4991323;28;20053;-72
2021/08/05 00:37:10;;;;;;;16.40;12.77;;;14.60;99.90;;;;;;5003268;28;20336;-72
2021/08/05 00:39:37;;;;;;;15.70;14.10;;;14.50;99.90;;;;;;4998922;28;20422;-73
2021/08/05 00:42:04;;;;;;;17.00;14.32;;;14.50;99.90;;;;;;4983479;28;20113;-72
2021/08/05 00:44:31;;;;;;;16.52;12.70;;;14.50;99.90;;;;;;4985170;28;20419;-72
2021/08/05 00:46:58;;;;;;;15.30;13.00;;;14.40;99.90;;;;;;4997749;28;20053;-73
2021/08/05 00:49:25;;;;;;;14.00;12.50;;;14.40;99.90;;;;;;5006232;28;20061;-72
2021/08/05 00:51:52;;;;;;;16.45;12.75;;;14.40;99.90;;;;;;5002240;28;20054;-73
2021/08/05 00:54:19;;;;;;;15.38;12.63;;;14.40;99.90;;;;;;5002292;28;20081;-73
2021/08/05 00:56:46;;;;;;;16.17;14.48;;;14.40;99.90;;;;;;5003074;28;20053;-73
2021/08/05 00:59:13;;;;;;;19.10;13.50;;;14.40;99.90;;;;;;5010756;28;20048;-73
2021/08/05 01:01:45;;;;;;;16.45;14.38;;;14.50;99.90;;;;;;5014899;28;20065;-73
2021/08/05 01:04:13;;;;;;;18.17;15.18;;;14.40;99.90;;;;;;5020045;28;20046;-73
2021/08/05 01:07:05;;;;;;;17.08;13.23;;;14.50;99.90;;;;;;5001928;28;20161;-72
2021/08/05 01:09:32;;;;;;;17.10;14.82;;;14.50;99.90;;;;;;4992355;28;20050;-72
2021/08/05 01:12:09;;;;;;;17.35;14.15;;;14.50;99.90;;;;;;4983971;28;20526;-73
2021/08/05 01:14:41;;;;;;;17.70;14.23;;;14.50;99.90;;;;;;4968643;28;20053;-72
2021/08/05 01:17:10;;;;;;;15.63;12.88;;;14.50;99.90;;;;;;5002975;28;20366;-73
2021/08/05 01:19:52;;;;;;;16.88;13.55;;;14.40;99.90;;;;;;5002664;28;20294;-72
2021/08/05 01:22:45;;;;;;;20.10;14.00;;;14.30;99.90;;;;;;4984891;28;20056;-73
2021/08/05 01:25:30;;;;;;;16.27;14.63;;;14.30;99.90;;;;;;5007121;28;20054;-72
2021/08/05 01:27:59;;;;;;;17.40;15.20;;;14.20;99.90;;;;;;5015533;28;20083;-73
2021/08/05 01:30:27;;;;;;;17.15;15.40;;;14.30;99.90;;;;;;5003803;28;20302;-72
2021/08/05 01:32:56;;;;;;;17.60;15.68;;;14.30;99.90;;;;;;5022212;28;20112;-73
2021/08/05 01:35:25;;;;;;;20.33;15.50;;;14.40;99.90;;;;;;5001806;28;20403;-73
2021/08/05 01:37:52;;;;;;;19.67;15.85;;;14.30;99.90;;;;;;4986117;28;20859;-73
2021/08/05 01:40:20;;;;;;;17.30;14.60;;;14.10;99.90;;;;;;4977043;28;20487;-73
2021/08/05 01:42:48;;;;;;;16.42;14.73;;;14.30;99.90;;;;;;4986909;28;20210;-73
2021/08/05 01:45:16;;;;;;;17.73;15.30;;;14.30;99.90;;;;;;5002307;28;20440;-73
2021/08/05 01:47:44;;;;;;;15.40;13.80;;;14.40;99.90;;;;;;5004069;28;20064;-72
2021/08/05 01:50:13;;;;;;;18.85;14.50;;;14.30;99.90;;;;;;5001490;28;20100;-72
2021/08/05 01:52:42;;;;;;;17.35;14.88;;;14.10;99.90;;;;;;4986089;28;20038;-73
2021/08/05 01:55:10;;;;;;;17.90;14.90;;;14.00;99.90;;;;;;4983255;28;20046;-72
2021/08/05 01:57:37;;;;;;;17.58;15.10;;;14.20;99.90;;;;;;5030194;28;20064;-72
2021/08/05 02:00:09;;;;;;;18.00;15.75;;;14.30;99.90;;;;;;5021747;28;20287;-72
2021/08/05 02:02:39;;;;;;;24.20;16.43;;;14.30;99.90;;;;;;4987167;28;20050;-72
2021/08/05 02:05:15;;;;;;;18.70;16.65;;;14.20;99.90;;;;;;4984897;28;20332;-73
2021/08/05 02:07:53;;;;;;;20.38;17.63;;;14.20;99.90;;;;;;4969730;28;20503;-72
2021/08/05 02:10:27;;;;;;;20.73;17.27;;;14.30;99.90;;;;;;4970048;28;20553;-73
2021/08/05 02:13:01;;;;;;;20.42;18.33;;;14.40;99.90;;;;;;4988807;28;20077;-73
2021/08/05 02:15:31;;;;;;;20.92;18.55;;;14.40;99.90;;;;;;5021950;28;20050;-72
2021/08/05 02:17:58;;;;;;;21.60;18.25;;;14.40;99.90;;;;;;5026925;28;20045;-73
2021/08/05 02:20:26;;;;;;;24.10;18.52;;;14.50;99.90;;;;;;4990776;28;20486;-72
2021/08/05 02:22:54;;;;;;;23.73;19.98;;;14.40;99.90;;;;;;5007551;28;20379;-72
2021/08/05 02:25:21;;;;;;;26.70;20.65;;;14.30;99.90;;;;;;5005399;28;20046;-73
2021/08/05 02:27:49;;;;;;;23.58;20.95;;;14.40;99.90;;;;;;5008405;28;20053;-72
2021/08/05 02:30:17;;;;;;;22.60;18.92;;;14.50;99.90;;;;;;5016217;28;20056;-72
2021/08/05 02:32:44;;;;;;;21.80;19.60;;;14.40;99.90;;;;;;5009223;28;20438;-72
2021/08/05 02:35:12;;;;;;;20.88;18.48;;;14.20;99.90;;;;;;5017761;28;20113;-72
2021/08/05 02:37:39;;;;;;;21.20;19.00;;;14.20;99.90;;;;;;5006488;28;20054;-72
2021/08/05 02:40:07;;;;;;;22.45;18.67;;;14.20;99.90;;;;;;5005388;28;20057;-73
2021/08/05 02:42:35;;;;;;;24.45;19.35;;;14.20;99.90;;;;;;5004823;28;20058;-73
2021/08/05 02:45:03;;;;;;;20.30;17.92;;;14.20;99.90;;;;;;5013687;28;20706;-73
2021/08/05 02:47:30;;;;;;;18.75;16.75;;;14.30;99.90;;;;;;5025453;28;20526;-73
2021/08/05 02:49:59;;;;;;;20.15;17.25;;;14.30;99.90;;;;;;5023518;28;20464;-73
2021/08/05 02:52:27;;;;;;;21.10;18.48;;;14.20;99.90;;;;;;5000638;28;20042;-72
2021/08/05 02:54:54;;;;;;;21.08;18.40;;;14.20;99.90;;;;;;5004993;28;20054;-73
2021/08/05 02:57:21;;;;;;;20.63;18.42;;;14.20;99.90;;;;;;5005827;28;20046;-73
2021/08/05 02:59:50;;;;;;;23.20;18.38;;;14.10;99.90;;;;;;5015615;28;20295;-73
2021/08/05 03:02:17;;;;;;;22.33;19.92;;;14.10;99.90;;;;;;5005233;28;20041;-73
2021/08/05 03:04:44;;;;;;;22.83;18.50;;;14.30;99.90;;;;;;5005548;28;20072;-73
2021/08/05 03:07:11;;;;;;;21.83;19.55;;;14.30;99.90;;;;;;5004722;28;20112;-73
2021/08/05 03:09:38;;;;;;;21.02;17.65;;;14.20;99.90;;;;;;5020820;28;20056;-73
2021/08/05 03:12:05;;;;;;;21.15;19.05;;;14.20;99.90;;;;;;5005910;28;20038;-73
2021/08/05 03:14:32;;;;;;;24.02;20.58;;;14.30;99.90;;;;;;5010575;28;20038;-72
2021/08/05 03:17:00;;;;;;;26.00;21.65;;;14.30;99.90;;;;;;5009947;28;20495;-73
2021/08/05 03:19:27;;;;;;;23.35;20.88;;;14.30;99.90;;;;;;5004888;28;20277;-73
2021/08/05 03:21:54;;;;;;;25.17;22.50;;;14.40;99.90;;;;;;4986042;28;20463;-72
2021/08/05 03:24:21;;;;;;;28.00;22.05;;;14.20;99.90;;;;;;5002682;28;20054;-73
2021/08/05 03:26:48;;;;;;;24.90;21.92;;;14.20;99.90;;;;;;5004982;28;20059;-72
2021/08/05 03:29:14;;;;;;;25.00;21.63;;;14.10;99.90;;;;;;5013557;28;20065;-72
2021/08/05 03:31:41;;;;;;;24.23;21.23;;;13.90;99.90;;;;;;5021394;28;20600;-72
2021/08/05 03:34:08;;;;;;;25.45;22.25;;;14.00;99.90;;;;;;5013038;28;20034;-72
2021/08/05 03:36:34;;;;;;;24.23;21.38;;;14.00;99.90;;;;;;5005549;28;20045;-73
2021/08/05 03:39:01;;;;;;;25.13;22.35;;;14.10;99.90;;;;;;5008606;28;20050;-73
2021/08/05 03:41:28;;;;;;;25.73;22.80;;;14.20;99.90;;;;;;5003560;28;20057;-72
2021/08/05 03:43:55;;;;;;;26.60;23.63;;;14.20;99.90;;;;;;5020666;28;20103;-71
2021/08/05 03:46:21;;;;;;;28.90;24.83;;;14.00;99.90;;;;;;5023536;28;20301;-72
2021/08/05 03:48:48;;;;;;;28.95;24.85;;;13.90;99.90;;;;;;5005077;28;20053;-73
2021/08/05 03:51:15;;;;;;;28.40;24.55;;;13.80;99.90;;;;;;5023223;28;20136;-73
2021/08/05 03:53:41;;;;;;;28.25;25.35;;;13.80;99.90;;;;;;5025361;28;20224;-73
2021/08/05 03:56:08;;;;;;;26.80;23.95;;;13.90;99.90;;;;;;5002428;28;20070;-72
2021/08/05 03:58:35;;;;;;;31.02;24.20;;;13.90;99.90;;;;;;5001163;22;20074;-74
2021/08/05 04:01:02;;;;;;;26.48;23.67;;;13.80;99.90;;;;;;4965225;28;20073;-74
2021/08/05 04:03:29;;;;;;;27.52;24.48;;;13.80;99.90;;;;;;4965116;28;20646;-74
2021/08/05 04:05:56;;;;;;;29.60;24.73;;;13.80;99.90;;;;;;4962492;28;20124;-77
2021/08/05 04:08:22;;;;;;;27.13;24.20;;;13.90;99.90;;;;;;4968286;28;20378;-74
2021/08/05 04:10:49;;;;;;;29.58;25.50;;;13.90;99.90;;;;;;4983751;28;20062;-74
2021/08/05 04:13:17;;;;;;;28.90;25.80;;;13.90;99.90;;;;;;4978177;28;20059;-74
2021/08/05 04:15:45;;;;;;;34.65;26.85;;;13.90;99.90;;;;;;4964542;28;20116;-74
2021/08/05 04:18:11;;;;;;;30.95;26.90;;;14.00;99.90;;;;;;4964621;28;20054;-74
2021/08/05 04:20:38;;;;;;;28.77;25.65;;;14.00;99.90;;;;;;4940933;28;20038;-75
2021/08/05 04:23:05;;;;;;;27.33;24.40;;;14.00;99.90;;;;;;4974489;28;20333;-74
2021/08/05 04:25:32;;;;;;;25.52;22.83;;;14.00;99.90;;;;;;4982888;28;20064;-74
2021/08/05 04:27:59;;;;;;;26.90;24.10;;;14.00;99.90;;;;;;4983586;28;20057;-74
2021/08/05 04:30:26;;;;;;;24.77;22.23;;;14.00;99.90;;;;;;4985276;28;20054;-74
2021/08/05 04:32:52;;;;;;;28.13;20.95;;;14.00;99.90;;;;;;4983071;28;20086;-74
2021/08/05 04:35:19;;;;;;;25.38;22.60;;;14.10;99.90;;;;;;4930894;28;20047;-74
2021/08/05 04:37:57;;;;;;;23.25;20.23;;;14.20;99.90;;;;;;4983403;28;20050;-74
2021/08/05 04:40:26;;;;;;;22.80;20.33;;;14.20;99.90;;;;;;4983114;28;20047;-74
2021/08/05 04:42:54;;;;;;;21.35;19.08;;;14.10;99.90;;;;;;4981752;28;20051;-74
2021/08/05 04:45:21;;;;;;;23.40;20.17;;;14.10;99.90;;;;;;4947093;28;20175;-74
2021/08/05 04:47:50;;;;;;;22.35;19.92;;;14.00;99.90;;;;;;4950098;28;20509;-74
2021/08/05 04:50:19;;;;;;;24.20;20.20;;;14.10;99.90;;;;;;4972679;28;20053;-74
2021/08/05 04:52:46;;;;;;;25.17;21.35;;;14.00;99.90;;;;;;4958010;28;20054;-74
2021/08/05 04:55:12;;;;;;;25.33;22.13;;;14.10;99.90;;;;;;4982399;28;20051;-74
2021/08/05 04:57:54;;;;;;;25.67;22.13;;;14.10;99.90;;;;;;4982744;28;20045;-74
2021/08/05 05:00:29;;;;;;;27.52;21.35;;;14.10;99.90;;;;;;4965367;28;20050;-74
2021/08/05 05:02:57;;;;;;;24.58;21.85;;;14.00;99.90;;;;;;4983497;28;20129;-74
2021/08/05 05:05:26;;;;;;;24.73;22.10;;;14.10;99.90;;;;;;4966451;28;20138;-75
2021/08/05 05:07:53;;;;;;;23.48;20.95;;;14.10;99.90;;;;;;4969752;28;20062;-74
2021/08/05 05:10:22;;;;;;;21.70;19.50;;;14.20;99.90;;;;;;4963827;28;20043;-75
2021/08/05 05:12:49;;;;;;;21.95;19.02;;;14.30;99.90;;;;;;4946978;28;20062;-74
2021/08/05 05:15:19;;;;;;;21.10;18.42;;;14.40;99.90;;;;;;4943668;28;20345;-75
2021/08/05 05:17:47;;;;;;;19.13;17.15;;;14.40;99.90;;;;;;4957661;28;20046;-75
2021/08/05 05:20:14;;;;;;;18.30;16.50;;;14.50;99.90;;;;;;4952094;28;20137;-75
2021/08/05 05:22:41;;;;;;;18.20;16.05;;;14.60;99.90;;;;;;4945186;28;20054;-75
2021/08/05 05:25:10;;;;;;;18.23;15.77;;;14.50;99.90;;;;;;4971091;28;20322;-75
2021/08/05 05:27:38;;;;;;;16.58;14.60;;;14.60;99.90;;;;;;4958682;28;20157;-75
2021/08/05 05:30:07;;;;;;;16.27;14.57;;;14.70;99.90;;;;;;4957257;28;20056;-75
2021/08/05 05:32:33;;;;;;;15.43;13.88;;;14.70;99.90;;;;;;4960363;28;20319;-75
2021/08/05 05:35:01;;;;;;;20.33;17.00;;;14.70;99.90;;;;;;4962241;28;20047;-75
2021/08/05 05:37:28;;;;;;;17.48;15.68;;;14.90;99.90;;;;;;4945246;28;20055;-75
2021/08/05 05:39:55;;;;;;;15.05;13.65;;;14.80;99.90;;;;;;4964941;28;20102;-75
2021/08/05 05:42:23;;;;;;;14.55;13.05;;;14.90;99.90;;;;;;4962410;28;20121;-74
2021/08/05 05:44:50;;;;;;;15.05;12.88;;;14.90;99.90;;;;;;4961554;28;20078;-75
2021/08/05 05:47:18;;;;;;;14.10;11.98;;;15.00;99.90;;;;;;4930651;28;20581;-76
2021/08/05 05:49:45;;;;;;;15.65;13.10;;;15.10;99.90;;;;;;4974238;28;20065;-76
2021/08/05 05:52:13;;;;;;;14.85;13.23;;;15.20;99.90;;;;;;4972928;28;20652;-76
2021/08/05 05:54:40;;;;;;;16.98;14.20;;;15.10;99.90;;;;;;4947883;28;20363;-76
2021/08/05 05:57:07;;;;;;;16.17;14.30;;;15.20;99.90;;;;;;4946437;28;20043;-76
2021/08/05 05:59:34;;;;;;;16.67;14.88;;;15.40;99.90;;;;;;4963831;28;20109;-76
2021/08/05 06:02:01;;;;;;;16.38;14.68;;;15.50;99.90;;;;;;4962275;28;20548;-76
2021/08/05 06:04:28;;;;;;;15.68;14.18;;;15.70;99.90;;;;;;4944669;28;20061;-76
2021/08/05 06:06:55;;;;;;;16.50;14.70;;;15.80;99.90;;;;;;4961360;28;20249;-76
2021/08/05 06:09:21;;;;;;;14.95;13.35;;;15.90;99.90;;;;;;4971075;28;20047;-76
2021/08/05 06:11:48;;;;;;;15.98;14.48;;;15.90;99.90;;;;;;4981076;28;20057;-76
2021/08/05 06:14:15;;;;;;;18.50;16.70;;;15.80;99.90;;;;;;4965739;28;20047;-76
2021/08/05 06:16:42;;;;;;;16.98;15.27;;;15.80;99.90;;;;;;4945610;28;20066;-76
2021/08/05 06:19:09;;;;;;;17.55;15.57;;;15.90;99.90;;;;;;4966412;28;20233;-75
2021/08/05 06:21:36;;;;;;;15.77;13.95;;;16.00;99.90;;;;;;4958760;28;20035;-75
2021/08/05 06:24:03;;;;;;;15.82;14.05;;;16.20;99.90;;;;;;4945841;28;20046;-75
2021/08/05 06:26:30;;;;;;;15.10;13.65;;;16.30;99.90;;;;;;4960880;28;20046;-75
2021/08/05 06:28:57;;;;;;;15.50;13.90;;;16.40;99.90;;;;;;4961498;28;20117;-75
2021/08/05 06:31:24;;;;;;;18.52;14.43;;;16.60;99.90;;;;;;4948021;28;20051;-75
2021/08/05 06:33:51;;;;;;;13.68;12.23;;;16.80;99.90;;;;;;4943354;28;20082;-75
2021/08/05 06:36:21;;;;;;;15.20;13.20;;;17.00;99.90;;;;;;4929821;28;20057;-75
2021/08/05 06:38:50;;;;;;;14.18;12.80;;;17.00;99.90;;;;;;4964637;28;20057;-75
2021/08/05 06:41:17;;;;;;;17.80;11.95;;;17.20;99.90;;;;;;4962183;28;20154;-75
2021/08/05 06:43:44;;;;;;;14.13;12.63;;;17.30;99.90;;;;;;4962860;28;20158;-75
2021/08/05 06:46:11;;;;;;;12.13;10.98;;;17.50;99.90;;;;;;4966255;28;20129;-75
2021/08/05 06:48:38;;;;;;;13.68;12.38;;;17.70;99.90;;;;;;4934449;28;20058;-75
2021/08/05 06:51:05;;;;;;;12.57;11.35;;;17.90;99.90;;;;;;4969388;28;20495;-75
2021/08/05 06:53:31;;;;;;;10.93;9.32;;;17.90;99.90;;;;;;4981307;28;20137;-75
2021/08/05 06:55:58;;;;;;;10.77;9.68;;;17.90;99.90;;;;;;4949690;28;20144;-75
2021/08/05 06:58:28;;;;;;;10.13;9.20;;;17.90;99.90;;;;;;4984451;28;20054;-75
2021/08/05 07:00:55;;;;;;;11.63;9.13;;;18.00;99.90;;;;;;4968915;28;20395;-75
2021/08/05 07:03:22;;;;;;;10.00;9.10;;;18.00;99.90;;;;;;4976365;28;20047;-75
2021/08/05 07:05:49;;;;;;;9.75;8.85;;;18.00;99.90;;;;;;4929788;29;20054;-75
2021/08/05 07:08:16;;;;;;;10.23;9.30;;;18.00;99.90;;;;;;4931280;29;20062;-74
2021/08/05 07:10:42;;;;;;;10.65;9.32;;;18.20;99.90;;;;;;4946283;28;20047;-75
2021/08/05 07:13:09;;;;;;;9.75;9.05;;;18.20;99.90;;;;;;4947732;28;20420;-75
2021/08/05 07:15:36;;;;;;;9.65;8.85;;;18.00;99.90;;;;;;4948360;28;20193;-75
2021/08/05 07:18:03;;;;;;;9.43;8.50;;;18.20;99.90;;;;;;4986165;28;20069;-74
2021/08/05 07:20:29;;;;;;;9.50;8.63;;;18.30;99.90;;;;;;4979227;28;20421;-74
2021/08/05 07:22:56;;;;;;;10.65;9.60;;;18.40;99.90;;;;;;4981877;28;20574;-74
2021/08/05 07:25:23;;;;;;;10.15;9.25;;;18.30;99.90;;;;;;4945212;28;20063;-75
2021/08/05 07:27:50;;;;;;;11.93;10.05;;;18.30;99.90;;;;;;4944217;28;20135;-75
2021/08/05 07:30:18;;;;;;;11.60;10.50;;;18.30;99.90;;;;;;4930270;28;20055;-75
2021/08/05 07:32:45;;;;;;;10.32;9.38;;;18.30;99.90;;;;;;4929734;29;20091;-75
2021/08/05 07:35:12;;;;;;;12.55;9.90;;;18.60;99.90;;;;;;4961828;28;20062;-75
2021/08/05 07:37:39;;;;;;;9.77;8.93;;;18.60;99.90;;;;;;4967214;28;20081;-75
2021/08/05 07:40:07;;;;;;;10.40;9.27;;;18.80;99.90;;;;;;4963379;28;20101;-75
2021/08/05 07:42:34;;;;;;;11.10;10.10;;;18.90;99.90;;;;;;4962339;28;20047;-75
2021/08/05 07:45:01;;;;;;;11.00;10.10;;;19.00;99.90;;;;;;4948710;28;20603;-75
2021/08/05 07:47:28;;;;;;;9.52;8.73;;;19.20;99.90;;;;;;4965433;28;20086;-75
2021/08/05 07:49:54;;;;;;;10.70;9.90;;;19.20;99.90;;;;;;4972554;28;20066;-75
2021/08/05 07:52:21;;;;;;;10.73;9.80;;;19.20;99.90;;;;;;4976857;28;20108;-75
2021/08/05 07:54:48;;;;;;;10.85;10.13;;;19.30;99.90;;;;;;4965396;28;20050;-75
2021/08/05 07:57:15;;;;;;;10.27;9.57;;;19.40;99.90;;;;;;4983770;28;20149;-75
2021/08/05 07:59:42;;;;;;;9.32;8.63;;;19.40;99.90;;;;;;4967958;28;20042;-74
2021/08/05 08:02:09;;;;;;;9.95;9.13;;;19.60;99.90;;;;;;4983711;28;20101;-75
2021/08/05 08:04:38;;;;;;;10.00;9.30;;;19.60;99.90;;;;;;4982394;28;20687;-75
2021/08/05 08:07:05;;;;;;;9.27;8.57;;;19.50;99.90;;;;;;4964983;28;20058;-75
2021/08/05 08:09:33;;;;;;;9.77;9.00;;;19.80;99.90;;;;;;4965034;28;20097;-75
2021/08/05 08:12:00;;;;;;;9.30;8.45;;;19.40;99.90;;;;;;4965910;28;20051;-75
2021/08/05 08:14:27;;;;;;;10.32;9.27;;;18.90;99.90;;;;;;4953640;28;20401;-75
2021/08/05 08:16:53;;;;;;;9.40;8.70;;;19.10;99.90;;;;;;4947663;28;20508;-75
2021/08/05 08:19:21;;;;;;;9.18;8.48;;;19.30;99.90;;;;;;4951132;28;20230;-75
2021/08/05 08:21:48;;;;;;;9.05;8.25;;;19.40;99.90;;;;;;4976302;28;20050;-75
2021/08/05 08:24:15;;;;;;;9.98;9.15;;;19.80;99.90;;;;;;4983666;28;20050;-75
2021/08/05 08:26:42;;;;;;;11.38;10.52;;;20.20;99.90;;;;;;4982594;28;20242;-74
2021/08/05 08:29:09;;;;;;;12.23;11.43;;;20.60;99.90;;;;;;4984798;28;20073;-75
2021/08/05 08:31:36;;;;;;;12.95;12.05;;;21.00;99.90;;;;;;4971286;28;20042;-75
2021/08/05 08:34:03;;;;;;;14.88;13.93;;;21.20;99.90;;;;;;4955555;28;20184;-75
2021/08/05 08:36:30;;;;;;;13.82;12.82;;;21.40;99.90;;;;;;4940974;28;20644;-75
2021/08/05 08:38:58;;;;;;;13.32;12.50;;;21.40;99.90;;;;;;4946907;28;20464;-75
2021/08/05 08:41:26;;;;;;;13.00;12.20;;;21.60;99.90;;;;;;4965559;28;20138;-75
2021/08/05 08:43:52;;;;;;;12.63;11.77;;;21.70;99.90;;;;;;4963583;28;20051;-75
2021/08/05 08:46:20;;;;;;;12.60;11.70;;;21.40;99.90;;;;;;4968247;28;20050;-75
2021/08/05 08:48:52;;;;;;;11.68;10.98;;;21.40;99.90;;;;;;4968566;28;20046;-75
2021/08/05 08:51:19;;;;;;;14.02;13.05;;;21.20;99.90;;;;;;4954825;28;20035;-75
2021/08/05 08:53:51;;;;;;;12.65;11.85;;;21.40;99.90;;;;;;4960334;28;20047;-75
2021/08/05 08:56:21;;;;;;;14.60;13.60;;;21.40;99.90;;;;;;4965742;28;20069;-77
2021/08/05 08:58:50;;;;;;;15.27;14.25;;;21.20;99.90;;;;;;4950461;28;20047;-77
2021/08/05 09:01:17;;;;;;;13.55;12.68;;;21.30;99.90;;;;;;4964111;28;20042;-77
2021/08/05 09:04:04;;;;;;;13.45;12.70;;;21.40;99.90;;;;;;4947964;28;20113;-76
2021/08/05 09:06:31;;;;;;;13.73;13.02;;;21.40;99.90;;;;;;4932810;28;20086;-77
2021/08/05 09:08:58;;;;;;;14.55;13.63;;;21.30;99.90;;;;;;4949553;28;20235;-77
2021/08/05 09:11:25;;;;;;;15.18;14.27;;;21.20;99.90;;;;;;4950334;28;20159;-76
2021/08/05 09:13:51;;;;;;;15.55;14.63;;;21.40;99.90;;;;;;4949772;28;20047;-78
2021/08/05 09:16:22;;;;;;;15.93;14.82;;;21.80;99.90;;;;;;4948685;28;20554;-78
2021/08/05 09:18:49;;;;;;;16.35;14.82;;;21.60;99.90;;;;;;4981173;28;20050;-79
2021/08/05 09:21:26;;;;;;;15.40;14.50;;;21.60;99.90;;;;;;4969312;28;20328;-78
2021/08/05 09:24:11;;;;;;;16.15;15.05;;;21.80;99.90;;;;;;4965506;28;20057;-78
2021/08/05 09:26:41;;;;;;;15.32;14.40;;;21.50;99.90;;;;;;4964300;28;20120;-77
2021/08/05 09:29:09;;;;;;;17.42;16.20;;;21.70;99.90;;;;;;4964900;28;20058;-77
2021/08/05 09:31:46;;;;;;;16.92;15.98;;;21.70;99.90;;;;;;4963418;28;20447;-78
2021/08/05 09:34:15;;;;;;;16.63;15.63;;;22.00;99.90;;;;;;4966743;28;20540;-78
2021/08/05 09:36:44;;;;;;;16.63;15.70;;;22.50;99.90;;;;;;4947516;28;20047;-78
2021/08/05 09:39:23;;;;;;;16.80;15.85;;;23.00;99.90;;;;;;4965156;28;20046;-77
2021/08/05 09:42:02;;;;;;;16.15;15.15;;;23.30;99.90;;;;;;4954611;28;20058;-78
2021/08/05 09:44:38;;;;;;;15.32;14.43;;;23.70;99.90;;;;;;4964677;28;20054;-78
2021/08/05 09:47:12;;;;;;;16.20;15.18;;;24.10;99.90;;;;;;4959929;28;20043;-74
2021/08/05 09:49:49;;;;;;;16.17;15.20;;;23.90;99.90;;;;;;4972156;28;20046;-75
2021/08/05 09:52:31;;;;;;;14.10;13.45;;;24.00;99.90;;;;;;4959023;28;20054;-75
2021/08/05 09:55:00;;;;;;;15.23;14.45;;;23.70;99.90;;;;;;4982084;28;20145;-76
2021/08/05 09:57:30;;;;;;;14.93;14.07;;;23.60;99.90;;;;;;4978258;28;20390;-76
2021/08/05 09:59:57;;;;;;;15.55;14.70;;;23.70;99.90;;;;;;4971980;28;20047;-75
2021/08/05 10:02:26;;;;;;;15.70;14.80;;;23.20;99.90;;;;;;4961297;28;20051;-75
2021/08/05 10:04:54;;;;;;;15.02;14.20;;;22.90;99.90;;;;;;4961121;28;20475;-74
2021/08/05 10:07:21;;;;;;;14.68;13.63;;;22.30;99.90;;;;;;4926771;28;20090;-75
2021/08/05 10:09:57;;;;;;;13.30;12.50;;;21.50;99.90;;;;;;4968856;28;20325;-74
2021/08/05 10:12:30;;;;;;;14.88;14.07;;;21.70;99.90;;;;;;4979231;28;20050;-75
2021/08/05 10:15:12;;;;;;;14.68;13.80;;;21.90;99.90;;;;;;4977035;28;20047;-75
2021/08/05 10:17:41;;;;;;;14.50;13.70;;;22.50;99.90;;;;;;4942785;28;20468;-75
2021/08/05 10:20:11;;;;;;;13.30;12.52;;;22.90;99.90;;;;;;4969389;28;20531;-75
2021/08/05 10:22:39;;;;;;;13.82;12.93;;;22.70;99.90;;;;;;4974348;28;20065;-75
2021/08/05 10:25:12;;;;;;;14.10;13.30;;;22.60;99.90;;;;;;4986709;28;20112;-75
2021/08/05 10:27:40;;;;;;;14.15;13.25;;;22.80;99.90;;;;;;4985272;28;20050;-75
2021/08/05 10:30:12;;;;;;;14.00;13.02;;;23.30;99.90;;;;;;4984809;28;20053;-75
2021/08/05 10:32:40;;;;;;;13.82;13.02;;;23.40;99.90;;;;;;4983459;28;20054;-74
2021/08/05 10:35:10;;;;;;;14.23;13.05;;;23.30;99.90;;;;;;4964795;28;20468;-75
2021/08/05 10:37:39;;;;;;;13.13;12.20;;;22.90;99.90;;;;;;4965739;28;20059;-75
2021/08/05 10:40:08;;;;;;;14.27;13.18;;;22.80;99.90;;;;;;4967335;28;20242;-75
2021/08/05 10:42:35;;;;;;;13.50;12.35;;;22.10;99.90;;;;;;4964795;28;20534;-75
2021/08/05 10:45:04;;;;;;;14.30;13.50;;;22.10;99.90;;;;;;4948855;28;20150;-75
2021/08/05 10:47:32;;;;;;;15.07;14.15;;;22.30;99.90;;;;;;4969075;28;20043;-75
2021/08/05 10:50:08;;;;;;;13.85;13.02;;;22.80;99.90;;;;;;4955690;28;20058;-76
2021/08/05 10:52:34;;;;;;;12.13;11.38;;;22.70;99.90;;;;;;4963401;28;20529;-75
2021/08/05 10:55:15;;;;;;;11.98;11.18;;;23.00;99.90;;;;;;4949358;28;20051;-75
2021/08/05 10:57:42;;;;;;;12.15;11.55;;;23.90;99.90;;;;;;4944967;28;20161;-75
2021/08/05 11:00:14;;;;;;;12.88;12.07;;;24.10;99.90;;;;;;4965946;28;20058;-75
2021/08/05 11:02:44;;;;;;;13.52;12.73;;;23.40;99.90;;;;;;4964795;28;20121;-75
2021/08/05 11:05:23;;;;;;;14.88;14.07;;;23.30;99.90;;;;;;4963200;28;20507;-76
2021/08/05 11:08:14;;;;;;;14.10;13.27;;;23.10;99.90;;;;;;4965241;28;20051;-76
2021/08/05 11:10:41;;;;;;;13.57;12.88;;;23.40;99.90;;;;;;4964138;28;20062;-75
2021/08/05 11:13:08;;;;;;;14.18;13.48;;;23.40;99.90;;;;;;4964684;28;20109;-75
2021/08/05 11:15:35;;;;;;;14.18;13.27;;;23.30;99.90;;;;;;4963937;28;20570;-76
2021/08/05 11:18:15;;;;;;;13.07;12.27;;;23.60;99.90;;;;;;4970725;28;20070;-75
2021/08/05 11:20:51;;;;;;;13.63;12.93;;;23.70;99.90;;;;;;4958775;28;20424;-74
2021/08/05 11:23:34;;;;;;;14.32;13.48;;;23.20;99.90;;;;;;4972945;28;20109;-74
2021/08/05 11:26:08;;;;;;;14.90;14.00;;;22.50;99.90;;;;;;4964947;28;20055;-75
2021/08/05 11:28:46;;;;;;;13.80;13.10;;;22.80;99.90;;;;;;4956256;28;20054;-76
2021/08/05 11:31:22;;;;;;;14.10;13.00;;;23.20;99.90;;;;;;4967691;28;20113;-76
2021/08/05 11:34:10;;;;;;;13.05;12.25;;;23.90;99.90;;;;;;4962648;28;20046;-75
2021/08/05 11:36:43;;;;;;;13.30;12.50;;;24.20;99.90;;;;;;4963426;28;20487;-75
2021/08/05 11:39:27;;;;;;;14.88;14.02;;;23.70;99.90;;;;;;4949047;28;20061;-75
2021/08/05 11:42:15;;;;;;;14.00;13.10;;;23.50;99.90;;;;;;4947960;28;20047;-75
2021/08/05 11:45:05;;;;;;;15.63;14.70;;;23.40;99.90;;;;;;4962148;28;20171;-76
2021/08/05 11:47:35;;;;;;;14.90;14.10;;;22.90;99.90;;;;;;4962473;28;20358;-76
2021/08/05 11:50:03;;;;;;;13.85;13.00;;;22.90;99.90;;;;;;4965300;28;20047;-75
2021/08/05 11:52:39;;;;;;;12.85;12.15;;;23.70;99.90;;;;;;4965473;28;20113;-75
2021/08/05 11:55:33;;;;;;;13.48;12.77;;;24.10;99.90;;;;;;4963856;28;20315;-75
2021/08/05 11:58:02;;;;;;;12.35;11.75;;;24.10;99.90;;;;;;4964277;28;20436;-75
2021/08/05 12:00:40;;;;;;;13.65;12.95;;;24.10;99.90;;;;;;4957479;28;20059;-75
2021/08/05 12:03:13;;;;;;;13.30;12.60;;;24.00;99.90;;;;;;4948764;28;20365;-75
2021/08/05 12:05:41;;;;;;;13.98;13.18;;;24.00;99.90;;;;;;4967376;28;20042;-75
2021/08/05 12:08:12;;;;;;;13.05;12.25;;;23.60;99.90;;;;;;4964444;28;20069;-75
2021/08/05 12:10:42;;;;;;;13.68;12.98;;;23.40;99.90;;;;;;4959429;28;20066;-75
2021/08/05 12:13:20;;;;;;;13.90;13.00;;;23.30;99.90;;;;;;4963293;28;20150;-74
2021/08/05 12:15:50;;;;;;;14.30;13.50;;;23.20;99.90;;;;;;4963172;28;20047;-75
2021/08/05 12:18:20;;;;;;;12.75;12.05;;;23.10;99.90;;;;;;4966185;28;20093;-75
2021/08/05 12:21:00;;;;;;;12.13;11.30;;;22.90;99.90;;;;;;4957738;28;20242;-75
2021/08/05 12:23:35;;;;;;;12.55;11.63;;;22.80;99.90;;;;;;4956877;28;20322;-75
2021/08/05 12:26:12;;;;;;;14.05;12.95;;;22.70;99.90;;;;;;4963385;28;20050;-75
2021/08/05 12:28:42;;;;;;;13.50;12.13;;;22.20;99.90;;;;;;4965106;28;20120;-75
2021/08/05 12:31:12;;;;;;;12.77;11.57;;;21.70;99.90;;;;;;4947335;28;20091;-75
2021/08/05 12:33:41;;;;;;;14.98;12.00;;;21.10;99.90;;;;;;4935533;28;20157;-75
2021/08/05 12:36:17;;;;;;;13.80;12.60;;;20.90;99.90;;;;;;4938907;28;20241;-76
2021/08/05 12:38:50;;;;;;;13.80;12.60;;;20.60;99.90;;;;;;4964802;28;20059;-77